Nearby METAR Reports

 

KPAE - Everett, Washington, USA
Distance from station: NW 15mi, 25km
Updated: 10/18/2019 11:36pm
Overcast
Overcast
 Wind from ESE
Wind: ESE 6 mph , 9 km/h
Temperature: 48°F , 9°C
Wind Chill: 45°F , 7°C
Dew Point: 46°F , 8°C
Humidity: 94%
Barometer: 29.76 inHg , 1007.8 hPa
Clouds: Overcast
Visibility: 10 miles , 16 km
Cloud details: Overcast 1000 ft
2019/10/19 06:36 KPAE 190636Z AUTO 12005KT 10SM OVC010 09/08 A2976 RMK AO2 CIG 009V014 T00890078
KBFI - Seattle/Boeing, Washington, USA
Distance from station: SW 20mi, 31km
Updated: 10/18/2019 10:53pm
Overcast
Overcast
 Wind from SSE
Wind: SSE 12 mph , 19 km/h
Temperature: 50°F , 10°C
Wind Chill: 45°F , 7°C
Dew Point: 46°F , 8°C
Humidity: 88%
Barometer: 29.77 inHg , 1008.1 hPa
Clouds: Overcast
Visibility: 10 miles , 16 km
Cloud details: Mostly cloudy 6000 ft
Overcast 7500 ft
2019/10/19 05:53 KBFI 190553Z 15010KT 10SM BKN060 OVC075 10/08 A2977 RMK AO2 SLP082 60039 T01000083 10117 20094 58022
KSEA - Seattle/Metro, Washington, USA
Distance from station: SSW 25mi, 41km
Updated: 10/18/2019 10:53pm
Overcast
Overcast
 Wind from SSE
Wind: SSE 9 mph , 15 km/h
Temperature: 50°F , 10°C
Wind Chill: 46°F , 8°C
Dew Point: 45°F , 7°C
Humidity: 82%
Barometer: 29.77 inHg , 1008.1 hPa
Clouds: Overcast
Visibility: 10 miles , 16 km
Cloud details: Partly cloudy 4900 ft
Overcast 6000 ft
2019/10/19 05:53 KSEA 190553Z 16008KT 10SM SCT049 OVC060 10/07 A2977 RMK AO2 SLP089 60057 T01000072 10111 20089 58023 $
 
KAWO - Arlington Muni, Washington, USA
Distance from station: NNW 28mi, 46km
Updated: 10/18/2019 10:56pm
Overcast
Overcast
 Wind from SE
Wind: SE 8 mph , 13 km/h
Temperature: 48°F , 9°C
Wind Chill: 44°F , 7°C
Dew Point: 45°F , 7°C
Humidity: 87%
Barometer: 29.78 inHg , 1008.5 hPa
Clouds: Overcast
Visibility: 10 miles , 16 km
Cloud details: Mostly cloudy 1700 ft
Overcast 2400 ft
2019/10/19 05:56 KAWO 190556Z AUTO 13007KT 10SM BKN017 OVC024 09/07 A2978 RMK AO2 RAB18E35 SLP088 6//// T00940072 10106 20089 58017 PNO $
KPWT - Bremerton Ntnl, Washington, USA
Distance from station: WSW 38mi, 61km
Updated: 10/18/2019 11:29pm
Rain, Mist, Overcast
Rain, Mist, Overcast
 Wind from SSW
Wind: SSW 6 mph , 9 km/h
Temperature: 48°F , 9°C
Wind Chill: 45°F , 7°C
Dew Point: 46°F , 8°C
Humidity: 94%
Barometer: 29.77 inHg , 1008.1 hPa
Summary: Rain, Mist
Clouds: Overcast
Visibility: 6 miles , 10 km
Cloud details: Few Clouds 1700 ft
Mostly cloudy 3000 ft
Overcast 4500 ft
2019/10/19 06:29 KPWT 190629Z AUTO 20005KT 6SM RA BR FEW017 BKN030 OVC045 09/08 A2977 RMK AO2 RAB0557 PNO $
KTIW - Tacoma, Washington, USA
Distance from station: SW 43mi, 69km
Updated: 10/18/2019 11:43pm
Rain, Mist, Overcast
Rain, Mist, Overcast
 Wind from S
Wind: S 6 mph , 9 km/h
Temperature: 48°F , 9°C
Wind Chill: 45°F , 7°C
Dew Point: 46°F , 8°C
Humidity: 94%
Barometer: 29.77 inHg , 1008.1 hPa
Summary: Rain, Mist
Clouds: Overcast
Visibility: 3 miles , 5 km
Cloud details: Partly cloudy 1200 ft
Overcast 4300 ft
2019/10/19 06:43 KTIW 190643Z AUTO 18005KT 3SM RA BR SCT012 OVC043 09/08 A2977 RMK AO2 RAB13 P0006 T00890083
 
KPLU - Puyallup/Thun, Washington, USA
Distance from station: SSW 47mi, 76km
Updated: 10/18/2019 11:35pm
Light rain, Overcast
Light rain, Overcast
 Wind from calm
Wind: Calm
Temperature: 48°F , 9°C
Dew Point: 48°F , 9°C
Humidity: 100%
Barometer: 29.78 inHg , 1008.5 hPa
Summary: Light rain
Clouds: Overcast
Visibility: 5 miles , 8 km
Cloud details: Few Clouds 1800 ft
Mostly cloudy 3400 ft
Overcast 4100 ft
2019/10/19 06:35 KPLU 190635Z AUTO 00000KT 5SM -RA FEW018 BKN034 OVC041 09/09 A2978 RMK AO2
KSMP - Stampede Pass, Washington, USA
Distance from station: SE 47mi, 76km
Updated: 10/18/2019 11:43pm
Light rain, Fog, Overcast
Light rain, Fog, Overcast
 Wind from calm
Wind: Calm
Temperature: 36°F , 2°C
Dew Point: 34°F , 1°C
Humidity: 93%
Barometer: 29.74 inHg , 1007.1 hPa
Summary: Light rain, Fog
Clouds: Overcast
Visibility: 1/2 mile , 0.8 km
Cloud details: Mostly cloudy 600 ft
Overcast 1400 ft
2019/10/19 06:43 KSMP 190643Z AUTO 00000KT 1/2SM -RA FG BKN006 OVC014 02/01 A2974 RMK AO2 RAE0558B42UPB0558E00 P0000 T00170006
KNUW - Whidbey Is. Nas, Washington, USA
Distance from station: NW 49mi, 79km
Updated: 10/18/2019 10:56pm
Light rain, Overcast
Light rain, Overcast
 Wind from ESE
Wind: ESE 12 mph , 19 km/h
Temperature: 52°F , 11°C
Dew Point: 46°F , 8°C
Humidity: 82%
Barometer: 29.79 inHg , 1008.8 hPa
Summary: Light rain
Clouds: Overcast
Visibility: 10 miles , 16 km
Cloud details: Partly cloudy 2400 ft
Mostly cloudy 5500 ft
Overcast 8000 ft
2019/10/19 05:56 KNUW 190556Z 11010KT 10SM -RA SCT024 BKN055 OVC080 11/08 A2979 RMK AO2 SLP086 P0002 60003 T01110078 10128 20106 58020 $
 
KBVS - Burlington/Mt V, Washington, USA
Distance from station: NNW 51mi, 83km
Updated: 10/18/2019 11:35pm
Mostly cloudy
Mostly cloudy
 Wind from ENE
Wind: ENE 6 mph , 9 km/h
Temperature: 48°F , 9°C
Wind Chill: 45°F , 7°C
Dew Point: 46°F , 8°C
Humidity: 94%
Barometer: 29.75 inHg , 1007.5 hPa
Clouds: Mostly cloudy
Visibility: 10 miles , 16 km
Cloud details: Few Clouds 2000 ft
Partly cloudy 3300 ft
Mostly cloudy 5000 ft
2019/10/19 06:35 KBVS 190635Z AUTO 06005KT 10SM FEW020 SCT033 BKN050 09/08 A2975 RMK A01
KSHN - Shelton, Washington, USA
Distance from station: SW 63mi, 101km
Updated: 10/18/2019 11:32pm
Light rain, Mist, Overcast
Light rain, Mist, Overcast
 Wind from calm
Wind: Calm
Temperature: 48°F , 9°C
Dew Point: 48°F , 9°C
Humidity: 100%
Barometer: 29.73 inHg , 1006.8 hPa
Summary: Light rain, Mist
Clouds: Overcast
Visibility: 6 miles , 10 km
Cloud details: Partly cloudy 1400 ft
Partly cloudy 4000 ft
Overcast 4900 ft
2019/10/19 06:32 KSHN 190632Z AUTO 00000KT 6SM -RA BR SCT014 SCT040 OVC049 09/09 A2973 RMK AO2 P0007 T00940089
KOLM - Olympia, Washington, USA
Distance from station: SW 68mi, 110km
Updated: 10/18/2019 11:36pm
Light rain, Mist, Overcast
Light rain, Mist, Overcast
 Wind from S
Wind: S 8 mph , 13 km/h
Temperature: 50°F , 10°C
Wind Chill: 47°F , 8°C
Dew Point: 48°F , 9°C
Humidity: 94%
Barometer: 29.75 inHg , 1007.5 hPa
Summary: Light rain, Mist
Clouds: Overcast
Visibility: 6 miles , 10 km
Cloud details: Partly cloudy 800 ft
Overcast 4900 ft
2019/10/19 06:36 KOLM 190636Z AUTO 18007KT 6SM -RA BR SCT008 OVC049 10/09 A2975 RMK AO2 P0008 T01000094
 
KCLM - Port Angeles, Washington, USA
Distance from station: WNW 72mi, 115km
Updated: 10/18/2019 11:39pm
Overcast
Overcast
 Wind from calm
Wind: Calm
Temperature: 46°F , 8°C
Dew Point: 46°F , 8°C
Humidity: 100%
Barometer: 29.73 inHg , 1006.8 hPa
Clouds: Overcast
Visibility: 10 miles , 16 km
Cloud details: Few Clouds 200 ft
Overcast 6000 ft
2019/10/19 06:39 KCLM 190639Z AUTO 00000KT 10SM FEW002 OVC060 08/08 A2973 RMK AO2 T00780078
CWYJ - Victoria Univ, British Columbia, Canada
Distance from station: NW 75mi, 121km
Updated: 10/18/2019 11:00pm

 Wind from SE
Wind: SE 1 mph , 2 km/h
Temperature: 48°F , 9°C
Dew Point: 48°F , 9°C
Humidity: 100%
2019/10/19 06:00 CWYJ 190600Z AUTO 13001KT 09/09 RMK AO1 8018 SLP072 T00900088 50002
KBLI - Bellingham, Washington, USA
Distance from station: NNW 75mi, 121km
Updated: 10/18/2019 10:53pm
Light rain, Overcast
Light rain, Overcast
 Wind from SSE
Wind: SSE 7 mph , 11 km/h
Temperature: 50°F , 10°C
Wind Chill: 47°F , 8°C
Dew Point: 45°F , 7°C
Humidity: 82%
Barometer: 29.76 inHg , 1007.8 hPa
Summary: Light rain
Clouds: Overcast
Visibility: 5 miles , 8 km
Cloud details: Few Clouds 1800 ft
Mostly cloudy 3700 ft
Overcast 4400 ft
2019/10/19 05:53 KBLI 190553Z AUTO 15006KT 5SM -RA FEW018 BKN037 OVC044 10/07 A2976 RMK AO2 SLP085 P0004 60006 T01000072 10111 20100 58011